createdAt,value
2016-04-10T00:00:14.527Z,0
2016-04-10T00:01:14.514Z,0
2016-04-10T00:02:14.532Z,0
2016-04-10T00:03:14.535Z,0
2016-04-10T00:04:14.538Z,0
2016-04-10T00:05:14.541Z,0
2016-04-10T00:06:14.558Z,0
2016-04-10T00:07:14.561Z,0
2016-04-10T00:08:14.549Z,0
2016-04-10T00:09:14.552Z,0
2016-04-10T00:10:14.569Z,0
2016-04-10T00:11:14.588Z,0
2016-04-10T00:12:14.574Z,0
2016-04-10T00:13:14.577Z,0
2016-04-10T00:14:14.596Z,0
2016-04-10T00:15:14.598Z,0
2016-04-10T00:16:14.602Z,0
2016-04-10T00:17:14.604Z,0
2016-04-10T00:18:14.622Z,0
2016-04-10T00:19:14.626Z,0
2016-04-10T00:20:14.612Z,0
2016-04-10T00:21:14.631Z,0
2016-04-10T00:22:14.758Z,0
2016-04-10T00:23:14.651Z,0
2016-04-10T00:24:14.653Z,0
2016-04-10T00:25:14.642Z,0
2016-04-10T00:26:14.659Z,0
2016-04-10T00:27:14.662Z,0
2016-04-10T00:28:14.664Z,0
2016-04-10T00:29:14.511Z,0
2016-04-10T00:30:14.670Z,0
2016-04-10T00:31:14.672Z,0
2016-04-10T00:32:14.675Z,0
2016-04-10T00:33:14.694Z,0
2016-04-10T00:34:14.697Z,0
2016-04-10T00:35:14.699Z,0
2016-04-10T00:36:14.702Z,0
2016-04-10T00:37:14.736Z,0
2016-04-10T00:38:14.707Z,0
2016-04-10T00:39:14.711Z,0
2016-04-10T00:40:14.728Z,0
2016-04-10T00:41:14.731Z,0
2016-04-10T00:42:14.733Z,0
2016-04-10T00:43:14.752Z,0
2016-04-10T00:44:14.739Z,0
2016-04-10T00:45:14.741Z,0
2016-04-10T00:46:14.760Z,0
2016-04-10T00:47:14.762Z,0
2016-04-10T00:48:14.765Z,0
2016-04-10T00:49:14.768Z,0
2016-04-10T00:50:14.771Z,0
2016-04-10T00:51:14.773Z,0
2016-04-10T00:52:15.354Z,0
2016-04-10T00:53:14.795Z,0
2016-04-10T00:54:14.798Z,0
2016-04-10T00:55:14.800Z,0
2016-04-10T00:56:14.803Z,0
2016-04-10T00:57:14.836Z,0
2016-04-10T00:58:14.823Z,0
2016-04-10T00:59:14.842Z,0
2016-04-10T01:00:14.828Z,0
2016-04-10T01:01:14.831Z,0
2016-04-10T01:02:14.834Z,0
2016-04-10T01:03:14.853Z,0
2016-04-10T01:04:14.856Z,0
2016-04-10T01:05:14.858Z,0
2016-04-10T01:06:14.887Z,0
2016-04-10T01:07:14.975Z,0
2016-04-10T01:08:14.972Z,0
2016-04-10T01:09:15.077Z,0
2016-04-10T01:10:15.104Z,0
2016-04-10T01:11:15.084Z,0
2016-04-10T01:12:15.100Z,0
2016-04-10T01:13:15.134Z,0
2016-04-10T01:14:15.183Z,0
2016-04-10T01:15:15.183Z,0
2016-04-10T01:16:15.225Z,0
2016-04-10T01:17:15.187Z,0
2016-04-10T01:18:15.195Z,0
2016-04-10T01:19:15.217Z,0
2016-04-10T01:20:15.241Z,0
2016-04-10T01:21:15.247Z,0
2016-04-10T01:22:15.282Z,0
2016-04-10T01:23:15.256Z,0
2016-04-10T01:24:15.260Z,0
2016-04-10T01:25:15.280Z,0
2016-04-10T01:26:15.270Z,0
2016-04-10T01:27:15.287Z,0
2016-04-10T01:28:15.291Z,0
2016-04-10T01:29:15.295Z,0
2016-04-10T01:30:15.298Z,0
2016-04-10T01:31:15.301Z,0
2016-04-10T01:32:15.304Z,0
2016-04-10T01:33:15.307Z,0
2016-04-10T01:34:15.311Z,0
2016-04-10T01:35:15.329Z,0
2016-04-10T01:36:15.348Z,0
2016-04-10T01:37:15.335Z,0
2016-04-10T01:38:15.212Z,0
2016-04-10T01:39:15.341Z,0
2016-04-10T01:40:15.187Z,0
2016-04-10T01:41:15.674Z,0
2016-04-10T01:42:15.364Z,0
2016-04-10T01:43:15.351Z,0
2016-04-10T01:44:15.370Z,0
2016-04-10T01:45:15.372Z,0
2016-04-10T01:46:15.688Z,0
2016-04-10T01:47:15.409Z,0
2016-04-10T01:48:15.396Z,0
2016-04-10T01:49:15.384Z,0
2016-04-10T01:50:15.620Z,0
2016-04-10T01:51:15.389Z,0
2016-04-10T01:52:15.391Z,0
2016-04-10T01:53:15.409Z,0
2016-04-10T01:54:15.412Z,0
2016-04-10T01:55:15.446Z,0
2016-04-10T01:56:15.433Z,0
2016-04-10T01:57:15.452Z,0
2016-04-10T01:58:15.454Z,0
2016-04-10T01:59:15.441Z,0
2016-04-10T02:00:15.694Z,0
2016-04-10T02:01:15.447Z,0
2016-04-10T02:02:15.465Z,0
2016-04-10T02:03:15.468Z,0
2016-04-10T02:04:15.471Z,0
2016-04-10T02:05:15.488Z,0
2016-04-10T02:06:15.491Z,0
2016-04-10T02:07:15.478Z,0
2016-04-10T02:08:15.496Z,0
2016-04-10T02:09:15.500Z,0
2016-04-10T02:10:15.502Z,0
2016-04-10T02:11:15.099Z,0
2016-04-10T02:12:15.507Z,0
2016-04-10T02:13:15.510Z,0
2016-04-10T02:14:15.763Z,0
2016-04-10T02:15:15.734Z,0
2016-04-10T02:16:15.534Z,0
2016-04-10T02:17:15.537Z,0
2016-04-10T02:18:15.539Z,0
2016-04-10T02:19:15.855Z,0
2016-04-10T02:20:14.826Z,0
2016-04-10T02:21:15.704Z,0
2016-04-10T02:22:15.550Z,0
2016-04-10T02:23:15.740Z,0
2016-04-10T02:24:15.587Z,0
2016-04-10T02:25:15.589Z,0
2016-04-10T02:26:15.920Z,0
2016-04-10T02:27:15.610Z,0
2016-04-10T02:28:15.831Z,0
2016-04-10T02:29:15.944Z,0
2016-04-10T02:30:15.603Z,0
2016-04-10T02:31:15.606Z,0
2016-04-10T02:32:15.967Z,0
2016-04-10T02:33:15.766Z,0
2016-04-10T02:34:15.630Z,0
2016-04-10T02:35:15.647Z,0
2016-04-10T02:36:15.838Z,0
2016-04-10T02:37:15.746Z,0
2016-04-10T02:38:15.671Z,0
2016-04-10T02:39:15.643Z,0
2016-04-10T02:40:15.910Z,0
2016-04-10T02:41:15.648Z,0
2016-04-10T02:42:15.916Z,0
2016-04-10T02:43:15.669Z,0
2016-04-10T02:44:15.672Z,0
2016-04-10T02:45:15.706Z,0
2016-04-10T02:46:15.693Z,0
2016-04-10T02:47:15.679Z,0
2016-04-10T02:48:15.682Z,0
2016-04-10T02:49:16.060Z,0
2016-04-10T02:50:15.703Z,0
2016-04-10T02:51:16.018Z,0
2016-04-10T02:52:15.724Z,0
2016-04-10T02:53:15.727Z,0
2016-04-10T02:54:15.995Z,0
2016-04-10T02:55:15.889Z,0
2016-04-10T02:56:15.736Z,0
2016-04-10T02:57:16.081Z,0
2016-04-10T02:58:15.756Z,0
2016-04-10T02:59:15.775Z,0
2016-04-10T03:00:16.011Z,0
2016-04-10T03:01:15.764Z,0
2016-04-10T03:02:16.016Z,0
2016-04-10T03:03:15.785Z,0
2016-04-10T03:04:15.773Z,0
2016-04-10T03:05:15.791Z,0
2016-04-10T03:06:15.980Z,0
2016-04-10T03:07:15.796Z,0
2016-04-10T03:08:16.033Z,0
2016-04-10T03:09:15.852Z,0
2016-04-10T03:10:15.807Z,0
2016-04-10T03:11:15.810Z,0
2016-04-10T03:12:15.828Z,0
2016-04-10T03:13:15.830Z,0
2016-04-10T03:14:16.021Z,0
2016-04-10T03:15:15.929Z,0
2016-04-10T03:16:15.854Z,0
2016-04-10T03:17:15.857Z,0
2016-04-10T03:18:15.844Z,0
2016-04-10T03:19:15.863Z,0
2016-04-10T03:20:16.006Z,0
2016-04-10T03:21:15.852Z,0
2016-04-10T03:22:15.996Z,0
2016-04-10T03:23:16.029Z,0
2016-04-10T03:24:15.876Z,0
2016-04-10T03:25:15.878Z,0
2016-04-10T03:26:15.882Z,0
2016-04-10T03:27:15.993Z,0
2016-04-10T03:28:15.903Z,0
2016-04-10T03:29:16.156Z,0
2016-04-10T03:30:15.908Z,0
2016-04-10T03:31:15.754Z,0
2016-04-10T03:32:15.976Z,0
2016-04-10T03:33:15.916Z,0
2016-04-10T03:34:15.965Z,0
2016-04-10T03:35:15.936Z,0
2016-04-10T03:36:16.080Z,0
2016-04-10T03:37:15.942Z,0
2016-04-10T03:38:15.882Z,0
2016-04-10T03:39:16.245Z,0
2016-04-10T03:40:15.966Z,0
2016-04-10T03:41:16.078Z,0
2016-04-10T03:42:15.987Z,0
2016-04-10T03:43:16.130Z,0
2016-04-10T03:44:15.977Z,0
2016-04-10T03:45:15.979Z,0
2016-04-10T03:46:16.091Z,0
2016-04-10T03:47:16.000Z,0
2016-04-10T03:48:15.988Z,0
2016-04-10T03:49:15.991Z,0
2016-04-10T03:50:16.023Z,0
2016-04-10T03:51:16.011Z,0
2016-04-10T03:52:15.999Z,0
2016-04-10T03:53:16.266Z,0
2016-04-10T03:54:16.238Z,0
2016-04-10T03:55:16.084Z,0
2016-04-10T03:56:16.040Z,0
2016-04-10T03:57:16.043Z,0
2016-04-10T03:58:16.046Z,0
2016-04-10T03:59:16.314Z,0
2016-04-10T04:00:16.066Z,0
2016-04-10T04:01:16.069Z,0
2016-04-10T04:02:16.073Z,0
2016-04-10T04:03:16.075Z,0
2016-04-10T04:04:16.078Z,0
2016-04-10T04:05:16.080Z,0
2016-04-10T04:06:16.442Z,0
2016-04-10T04:07:16.148Z,0
2016-04-10T04:08:16.541Z,0
2016-04-10T04:09:16.122Z,0
2016-04-10T04:10:16.172Z,0
2016-04-10T04:11:16.112Z,0
2016-04-10T04:12:16.459Z,0
2016-04-10T04:13:16.289Z,0
2016-04-10T04:14:16.120Z,0
2016-04-10T04:15:16.138Z,0
2016-04-10T04:16:16.141Z,0
2016-04-10T04:17:16.253Z,0
2016-04-10T04:18:16.146Z,0
2016-04-10T04:19:16.180Z,0
2016-04-10T04:20:16.167Z,0
2016-04-10T04:21:16.263Z,0
2016-04-10T04:22:16.157Z,0
2016-04-10T04:23:16.441Z,0
2016-04-10T04:24:16.179Z,0
2016-04-10T04:25:16.399Z,0
2016-04-10T04:26:16.184Z,0
2016-04-10T04:27:16.202Z,0
2016-04-10T04:28:16.204Z,0
2016-04-10T04:29:16.254Z,0
2016-04-10T04:30:16.210Z,0
2016-04-10T04:31:16.228Z,0
2016-04-10T04:32:16.575Z,0
2016-04-10T04:33:16.218Z,0
2016-04-10T04:34:16.549Z,0
2016-04-10T04:35:16.504Z,0
2016-04-10T04:36:16.242Z,0
2016-04-10T04:37:16.244Z,0
2016-04-10T04:38:16.341Z,0
2016-04-10T04:39:16.250Z,4
2016-04-10T04:40:16.361Z,4
2016-04-10T04:41:16.270Z,4
2016-04-10T04:42:16.492Z,4
2016-04-10T04:43:16.292Z,4
2016-04-10T04:44:16.278Z,4
2016-04-10T04:45:16.296Z,4
2016-04-10T04:46:16.347Z,8
2016-04-10T04:47:16.286Z,4
2016-04-10T04:48:16.492Z,4
2016-04-10T04:49:16.324Z,4
2016-04-10T04:50:16.409Z,4
2016-04-10T04:51:16.318Z,4
2016-04-10T04:52:16.524Z,8
2016-04-10T04:53:16.448Z,8
2016-04-10T04:54:16.310Z,8
2016-04-10T04:55:16.329Z,4
2016-04-10T04:56:16.394Z,8
2016-04-10T04:57:16.334Z,8
2016-04-10T04:58:16.352Z,12
2016-04-10T04:59:16.356Z,12
2016-04-10T05:00:16.561Z,12
2016-04-10T05:01:16.360Z,12
2016-04-10T05:02:16.379Z,12
2016-04-10T05:03:16.381Z,16
2016-04-10T05:04:16.572Z,16
2016-04-10T05:05:16.387Z,16
2016-04-10T05:06:16.452Z,16
2016-04-10T05:07:16.392Z,16
2016-04-10T05:08:16.739Z,20
2016-04-10T05:09:16.507Z,16
2016-04-10T05:10:16.416Z,20
2016-04-10T05:11:16.559Z,20
2016-04-10T05:12:16.421Z,20
2016-04-10T05:13:16.440Z,24
2016-04-10T05:14:16.536Z,24
2016-04-10T05:15:16.430Z,24
2016-04-10T05:16:16.432Z,28
2016-04-10T05:17:16.450Z,28
2016-04-10T05:18:16.484Z,32
2016-04-10T05:19:16.456Z,28
2016-04-10T05:20:16.458Z,32
2016-04-10T05:21:16.476Z,32
2016-04-10T05:22:16.464Z,36
2016-04-10T05:23:16.685Z,36
2016-04-10T05:24:16.484Z,36
2016-04-10T05:25:16.535Z,40
2016-04-10T05:26:16.506Z,36
2016-04-10T05:27:16.493Z,40
2016-04-10T05:28:16.495Z,40
2016-04-10T05:29:16.514Z,40
2016-04-10T05:30:16.626Z,40
2016-04-10T05:31:16.519Z,44
2016-04-10T05:32:16.522Z,44
2016-04-10T05:33:16.572Z,48
2016-04-10T05:34:16.574Z,48
2016-04-10T05:35:16.546Z,48
2016-04-10T05:36:16.548Z,52
2016-04-10T05:37:16.535Z,52
2016-04-10T05:38:16.586Z,60
2016-04-10T05:39:16.572Z,60
2016-04-10T05:40:16.558Z,60
2016-04-10T05:41:16.562Z,64
2016-04-10T05:42:16.580Z,64
2016-04-10T05:43:16.583Z,60
2016-04-10T05:44:16.586Z,60
2016-04-10T05:45:16.588Z,60
2016-04-10T05:46:16.607Z,60
2016-04-10T05:47:16.624Z,60
2016-04-10T05:48:16.596Z,64
2016-04-10T05:49:16.599Z,64
2016-04-10T05:50:16.602Z,64
2016-04-10T05:51:16.621Z,68
2016-04-10T05:52:16.607Z,68
2016-04-10T05:53:16.626Z,72
2016-04-10T05:54:16.628Z,72
2016-04-10T05:55:16.646Z,76
2016-04-10T05:56:16.649Z,76
2016-04-10T05:57:16.636Z,80
2016-04-10T05:58:16.671Z,80
2016-04-10T05:59:16.657Z,80
2016-04-10T06:00:16.675Z,80
2016-04-10T06:01:16.678Z,76
2016-04-10T06:02:16.696Z,80
2016-04-10T06:03:16.698Z,80
2016-04-10T06:04:16.686Z,80
2016-04-10T06:05:16.689Z,80
2016-04-10T06:06:16.707Z,80
2016-04-10T06:07:16.709Z,80
2016-04-10T06:08:16.712Z,88
2016-04-10T06:09:16.700Z,84
2016-04-10T06:10:16.717Z,88
2016-04-10T06:11:16.580Z,88
2016-04-10T06:12:16.723Z,84
2016-04-10T06:13:16.757Z,88
2016-04-10T06:14:16.761Z,88
2016-04-10T06:15:16.763Z,92
2016-04-10T06:16:16.749Z,92
2016-04-10T06:17:16.752Z,96
2016-04-10T06:18:16.755Z,96
2016-04-10T06:19:16.601Z,100
2016-04-10T06:20:16.776Z,104
2016-04-10T06:21:16.763Z,104
2016-04-10T06:22:16.782Z,108
2016-04-10T06:23:22.740Z,104
2016-04-10T06:24:16.546Z,108
2016-04-10T06:25:16.788Z,112
2016-04-10T06:26:20.718Z,112
2016-04-10T06:27:16.804Z,116
2016-04-10T06:28:16.791Z,120
2016-04-10T06:29:16.637Z,120
2016-04-10T06:30:16.812Z,124
2016-04-10T06:31:16.815Z,124
2016-04-10T06:32:16.832Z,124
2016-04-10T06:33:16.820Z,128
2016-04-10T06:34:16.823Z,128
2016-04-10T06:35:16.841Z,132
2016-04-10T06:36:16.859Z,132
2016-04-10T06:37:16.846Z,140
2016-04-10T06:38:16.849Z,144
2016-04-10T06:39:16.851Z,144
2016-04-10T06:40:16.869Z,144
2016-04-10T06:41:16.857Z,140
2016-04-10T06:42:16.875Z,140
2016-04-10T06:43:16.878Z,136
2016-04-10T06:44:16.881Z,140
2016-04-10T06:45:16.883Z,140
2016-04-10T06:46:16.901Z,140
2016-04-10T06:47:16.904Z,144
2016-04-10T06:48:16.891Z,148
2016-04-10T06:49:16.894Z,152
2016-04-10T06:50:16.912Z,152
2016-04-10T06:51:16.931Z,160
2016-04-10T06:52:16.964Z,164
2016-04-10T06:53:16.920Z,168
2016-04-10T06:54:16.767Z,172
2016-04-10T06:55:16.800Z,168
2016-04-10T06:56:16.928Z,172
2016-04-10T06:57:16.946Z,172
2016-04-10T06:58:16.950Z,172
2016-04-10T06:59:16.968Z,176
2016-04-10T07:00:16.985Z,180
2016-04-10T07:01:16.989Z,180
2016-04-10T07:02:16.976Z,188
2016-04-10T07:03:16.978Z,188
2016-04-10T07:04:16.982Z,192
2016-04-10T07:05:17.016Z,196
2016-04-10T07:06:16.987Z,196
2016-04-10T07:07:16.989Z,204
2016-04-10T07:08:17.024Z,208
2016-04-10T07:09:16.854Z,208
2016-04-10T07:10:17.044Z,216
2016-04-10T07:11:17.031Z,220
2016-04-10T07:12:17.018Z,228
2016-04-10T07:13:17.036Z,228
2016-04-10T07:14:17.040Z,232
2016-04-10T07:15:17.058Z,240
2016-04-10T07:16:17.061Z,244
2016-04-10T07:17:17.063Z,248
2016-04-10T07:18:17.066Z,252
2016-04-10T07:19:17.053Z,252
2016-04-10T07:20:17.071Z,256
2016-04-10T07:21:17.074Z,256
2016-04-10T07:22:17.077Z,264
2016-04-10T07:23:17.094Z,268
2016-04-10T07:24:17.083Z,276
2016-04-10T07:25:17.069Z,280
2016-04-10T07:26:17.103Z,284
2016-04-10T07:27:17.105Z,288
2016-04-10T07:28:17.124Z,300
2016-04-10T07:29:17.111Z,304
2016-04-10T07:30:17.113Z,312
2016-04-10T07:31:17.132Z,316
2016-04-10T07:32:17.135Z,320
2016-04-10T07:33:17.137Z,320
2016-04-10T07:34:17.141Z,324
2016-04-10T07:35:17.143Z,320
2016-04-10T07:36:17.161Z,316
2016-04-10T07:37:17.163Z,320
2016-04-10T07:38:17.182Z,316
2016-04-10T07:39:17.153Z,320
2016-04-10T07:40:17.171Z,320
2016-04-10T07:41:17.173Z,320
2016-04-10T07:42:17.177Z,320
2016-04-10T07:43:17.195Z,328
2016-04-10T07:44:17.182Z,332
2016-04-10T07:45:17.201Z,332
2016-04-10T07:46:17.203Z,332
2016-04-10T07:47:17.222Z,332
2016-04-10T07:48:17.209Z,328
2016-04-10T07:49:17.228Z,332
2016-04-10T07:50:17.214Z,332
2016-04-10T07:51:17.232Z,336
2016-04-10T07:52:17.235Z,340
2016-04-10T07:53:17.222Z,348
2016-04-10T07:54:17.241Z,352
2016-04-10T07:55:17.244Z,356
2016-04-10T07:56:17.246Z,356
2016-04-10T07:57:17.264Z,360
2016-04-10T07:58:17.267Z,360
2016-04-10T07:59:17.269Z,364
2016-04-10T08:00:17.288Z,364
2016-04-10T08:01:17.275Z,368
2016-04-10T08:02:17.277Z,372
2016-04-10T08:03:17.297Z,380
2016-04-10T08:04:17.283Z,380
2016-04-10T08:05:17.302Z,384
2016-04-10T08:06:17.304Z,384
2016-04-10T08:07:17.307Z,384
2016-04-10T08:08:17.325Z,392
2016-04-10T08:09:17.312Z,396
2016-04-10T08:10:17.331Z,404
2016-04-10T08:11:17.348Z,408
2016-04-10T08:12:17.352Z,412
2016-04-10T08:13:17.339Z,412
2016-04-10T08:14:17.356Z,412
2016-04-10T08:15:17.360Z,416
2016-04-10T08:16:17.362Z,416
2016-04-10T08:17:17.364Z,420
2016-04-10T08:18:17.367Z,424
2016-04-10T08:19:17.370Z,428
2016-04-10T08:20:17.358Z,432
2016-04-10T08:21:17.392Z,436
2016-04-10T08:22:17.394Z,436
2016-04-10T08:23:17.397Z,440
2016-04-10T08:24:17.399Z,436
2016-04-10T08:25:17.417Z,436
2016-04-10T08:26:17.404Z,440
2016-04-10T08:27:17.423Z,440
2016-04-10T08:28:17.425Z,440
2016-04-10T08:29:17.428Z,444
2016-04-10T08:30:17.447Z,452
2016-04-10T08:31:17.433Z,456
2016-04-10T08:32:17.468Z,464
2016-04-10T08:33:17.439Z,476
2016-04-10T08:34:17.473Z,484
2016-04-10T08:35:17.444Z,496
2016-04-10T08:36:17.479Z,504
2016-04-10T08:37:17.465Z,516
2016-04-10T08:38:17.500Z,520
2016-04-10T08:39:17.471Z,528
2016-04-10T08:40:17.489Z,536
2016-04-10T08:41:17.352Z,544
2016-04-10T08:42:17.495Z,540
2016-04-10T08:43:17.497Z,540
2016-04-10T08:44:17.501Z,540
2016-04-10T08:45:17.518Z,544
2016-04-10T08:46:17.521Z,544
2016-04-10T08:47:17.540Z,544
2016-04-10T08:48:17.370Z,540
2016-04-10T08:49:17.544Z,540
2016-04-10T08:50:17.564Z,536
2016-04-10T08:51:17.550Z,536
2016-04-10T08:52:17.552Z,536
2016-04-10T08:53:17.571Z,532
2016-04-10T08:54:17.620Z,536
2016-04-10T08:55:17.577Z,528
2016-04-10T08:56:17.579Z,508
2016-04-10T08:57:17.583Z,492
2016-04-10T08:58:17.600Z,484
2016-04-10T08:59:17.587Z,488
2016-04-10T09:00:17.606Z,488
2016-04-10T09:01:17.608Z,488
2016-04-10T09:02:17.627Z,492
2016-04-10T09:03:17.613Z,488
2016-04-10T09:04:17.632Z,496
2016-04-10T09:05:17.619Z,496
2016-04-10T09:06:17.481Z,504
2016-04-10T09:07:17.640Z,500
2016-04-10T09:08:17.658Z,488
2016-04-10T09:09:17.660Z,488
2016-04-10T09:10:17.664Z,484
2016-04-10T09:11:17.698Z,488
2016-04-10T09:12:17.668Z,496
2016-04-10T09:13:17.703Z,508
2016-04-10T09:14:17.674Z,524
2016-04-10T09:15:18.287Z,540
2016-04-10T09:16:17.695Z,552
2016-04-10T09:17:17.682Z,572
2016-04-10T09:18:17.717Z,608
2016-04-10T09:19:17.703Z,636
2016-04-10T09:20:17.722Z,656
2016-04-10T09:21:17.724Z,652
2016-04-10T09:22:17.728Z,636
2016-04-10T09:23:17.730Z,616
2016-04-10T09:24:18.139Z,604
2016-04-10T09:25:17.736Z,612
2016-04-10T09:26:17.753Z,624
2016-04-10T09:27:17.741Z,632
2016-04-10T09:28:17.758Z,636
2016-04-10T09:29:17.777Z,636
2016-04-10T09:30:17.764Z,624
2016-04-10T09:31:17.783Z,616
2016-04-10T09:32:18.019Z,624
2016-04-10T09:33:17.788Z,640
2016-04-10T09:34:17.807Z,656
2016-04-10T09:35:17.793Z,672
2016-04-10T09:36:17.796Z,684
2016-04-10T09:37:17.815Z,700
2016-04-10T09:38:17.818Z,720
2016-04-10T09:39:18.132Z,736
2016-04-10T09:40:17.823Z,752
2016-04-10T09:41:17.826Z,764
2016-04-10T09:42:17.828Z,768
2016-04-10T09:43:17.831Z,768
2016-04-10T09:44:17.849Z,776
2016-04-10T09:45:17.867Z,788
2016-04-10T09:46:17.854Z,768
2016-04-10T09:47:17.873Z,764
2016-04-10T09:48:17.875Z,760
2016-04-10T09:49:17.862Z,744
2016-04-10T09:50:17.881Z,740
2016-04-10T09:51:17.899Z,748
2016-04-10T09:52:17.901Z,736
2016-04-10T09:53:17.889Z,736
2016-04-10T09:54:18.000Z,752
2016-04-10T09:55:17.909Z,748
2016-04-10T09:56:17.912Z,748
2016-04-10T09:57:17.915Z,764
2016-04-10T09:58:17.918Z,792
2016-04-10T09:59:17.936Z,852
2016-04-10T10:00:17.939Z,1032
2016-04-10T10:01:17.941Z,1048
2016-04-10T10:02:17.944Z,1064
2016-04-10T10:03:17.947Z,1084
2016-04-10T10:04:17.949Z,1004
2016-04-10T10:05:17.968Z,944
2016-04-10T10:06:17.971Z,980
2016-04-10T10:07:17.974Z,1112
2016-04-10T10:08:17.992Z,984
2016-04-10T10:09:18.186Z,980
2016-04-10T10:10:18.001Z,984
2016-04-10T10:11:18.004Z,1016
2016-04-10T10:12:18.036Z,1004
2016-04-10T10:13:18.097Z,932
2016-04-10T10:14:18.125Z,892
2016-04-10T10:15:18.186Z,868
2016-04-10T10:16:18.231Z,908
2016-04-10T10:17:18.257Z,888
2016-04-10T10:18:18.290Z,884
2016-04-10T10:19:18.293Z,916
2016-04-10T10:20:18.326Z,984
2016-04-10T10:21:18.344Z,964
2016-04-10T10:22:18.403Z,928
2016-04-10T10:23:18.380Z,828
2016-04-10T10:24:18.513Z,604
2016-04-10T10:25:18.396Z,600
2016-04-10T10:26:18.404Z,616
2016-04-10T10:27:18.409Z,716
2016-04-10T10:28:18.445Z,904
2016-04-10T10:29:18.419Z,1044
2016-04-10T10:30:18.439Z,1040
2016-04-10T10:31:18.444Z,1048
2016-04-10T10:32:18.448Z,992
2016-04-10T10:33:18.467Z,964
2016-04-10T10:34:18.470Z,920
2016-04-10T10:35:18.489Z,596
2016-04-10T10:36:18.477Z,524
2016-04-10T10:37:18.496Z,492
2016-04-10T10:38:18.499Z,488
2016-04-10T10:39:18.471Z,512
2016-04-10T10:40:18.505Z,564
2016-04-10T10:41:18.508Z,620
2016-04-10T10:42:18.511Z,592
2016-04-10T10:43:18.529Z,580
2016-04-10T10:44:18.547Z,580
2016-04-10T10:45:18.394Z,576
2016-04-10T10:46:18.538Z,568
2016-04-10T10:47:18.556Z,556
2016-04-10T10:48:18.558Z,736
2016-04-10T10:49:18.561Z,628
2016-04-10T10:50:18.563Z,924
2016-04-10T10:51:18.582Z,1024
2016-04-10T10:52:18.585Z,1020
2016-04-10T10:53:18.587Z,948
2016-04-10T10:54:18.621Z,932
2016-04-10T10:55:18.592Z,936
2016-04-10T10:56:18.610Z,968
2016-04-10T10:57:18.598Z,1020
2016-04-10T10:58:18.615Z,1044
2016-04-10T10:59:18.634Z,1064
2016-04-10T11:00:18.621Z,780
2016-04-10T11:01:18.640Z,720
2016-04-10T11:02:18.487Z,864
2016-04-10T11:03:18.645Z,852
2016-04-10T11:04:18.664Z,676
2016-04-10T11:05:18.667Z,648
2016-04-10T11:06:18.669Z,648
2016-04-10T11:07:18.672Z,664
2016-04-10T11:08:18.690Z,736
2016-04-10T11:09:18.709Z,1008
2016-04-10T11:10:18.681Z,672
2016-04-10T11:11:18.698Z,672
2016-04-10T11:12:18.701Z,652
2016-04-10T11:13:18.704Z,612
2016-04-10T11:14:18.722Z,584
2016-04-10T11:15:18.741Z,748
2016-04-10T11:16:18.743Z,992
2016-04-10T11:17:18.730Z,896
2016-04-10T11:18:18.749Z,1008
2016-04-10T11:19:18.766Z,736
2016-04-10T11:20:18.785Z,764
2016-04-10T11:21:18.771Z,572
2016-04-10T11:22:18.774Z,556
2016-04-10T11:23:18.777Z,528
2016-04-10T11:24:18.811Z,516
2016-04-10T11:25:18.799Z,544
2016-04-10T11:26:18.785Z,564
2016-04-10T11:27:18.804Z,608
2016-04-10T11:28:18.806Z,672
2016-04-10T11:29:18.809Z,700
2016-04-10T11:30:18.812Z,708
2016-04-10T11:31:18.829Z,664
2016-04-10T11:32:18.832Z,616
2016-04-10T11:33:18.834Z,588
2016-04-10T11:34:18.853Z,844
2016-04-10T11:35:18.856Z,652
2016-04-10T11:36:18.859Z,772
2016-04-10T11:37:18.861Z,636
2016-04-10T11:38:18.881Z,552
2016-04-10T11:39:18.867Z,480
2016-04-10T11:40:18.901Z,404
2016-04-10T11:41:18.889Z,376
2016-04-10T11:42:18.906Z,360
2016-04-10T11:43:18.909Z,356
2016-04-10T11:44:18.911Z,360
2016-04-10T11:45:18.930Z,380
2016-04-10T11:46:18.949Z,392
2016-04-10T11:47:18.936Z,424
2016-04-10T11:48:18.939Z,480
2016-04-10T11:49:18.941Z,528
2016-04-10T11:50:18.960Z,584
2016-04-10T11:51:18.947Z,580
2016-04-10T11:52:18.965Z,560
2016-04-10T11:53:18.968Z,564
2016-04-10T11:54:18.970Z,516
2016-04-10T11:55:19.004Z,512
2016-04-10T11:56:18.991Z,564
2016-04-10T11:57:18.993Z,584
2016-04-10T11:58:19.012Z,628
2016-04-10T11:59:19.015Z,728
2016-04-10T12:00:19.001Z,752
2016-04-10T12:01:19.020Z,848
2016-04-10T12:02:19.023Z,1200
2016-04-10T12:03:19.026Z,892
2016-04-10T12:04:19.029Z,1068
2016-04-10T12:05:19.046Z,656
2016-04-10T12:06:19.049Z,612
2016-04-10T12:07:18.895Z,576
2016-04-10T12:08:19.086Z,556
2016-04-10T12:09:19.073Z,604
2016-04-10T12:10:19.059Z,676
2016-04-10T12:11:19.094Z,628
2016-04-10T12:12:19.096Z,656
2016-04-10T12:13:19.083Z,668
2016-04-10T12:14:19.102Z,668
2016-04-10T12:15:19.104Z,644
2016-04-10T12:16:19.139Z,620
2016-04-10T12:17:19.125Z,608
2016-04-10T12:18:19.128Z,608
2016-04-10T12:19:19.147Z,620
2016-04-10T12:20:19.133Z,632
2016-04-10T12:21:19.152Z,604
2016-04-10T12:22:19.170Z,580
2016-04-10T12:23:19.158Z,588
2016-04-10T12:24:19.176Z,604
2016-04-10T12:25:19.179Z,644
2016-04-10T12:26:19.182Z,652
2016-04-10T12:27:19.185Z,636
2016-04-10T12:28:19.202Z,628
2016-04-10T12:29:19.190Z,672
2016-04-10T12:30:19.208Z,688
2016-04-10T12:31:19.210Z,728
2016-04-10T12:32:19.213Z,764
2016-04-10T12:33:19.231Z,804
2016-04-10T12:34:19.234Z,804
2016-04-10T12:35:19.251Z,824
2016-04-10T12:36:19.270Z,1016
2016-04-10T12:37:19.273Z,1104
2016-04-10T12:38:19.259Z,1084
2016-04-10T12:39:19.262Z,956
2016-04-10T12:40:19.265Z,1104
2016-04-10T12:41:19.268Z,1240
2016-04-10T12:42:19.287Z,1232
2016-04-10T12:43:19.289Z,1280
2016-04-10T12:44:19.292Z,1388
2016-04-10T12:45:19.310Z,1436
2016-04-10T12:46:19.313Z,1300
2016-04-10T12:47:19.331Z,1188
2016-04-10T12:48:19.318Z,1156
2016-04-10T12:49:19.321Z,1168
2016-04-10T12:50:19.338Z,1212
2016-04-10T12:51:19.357Z,1252
2016-04-10T12:52:19.360Z,1360
2016-04-10T12:53:19.363Z,1392
2016-04-10T12:54:19.350Z,1380
2016-04-10T12:55:19.385Z,1304
2016-04-10T12:56:19.371Z,1284
2016-04-10T12:57:19.390Z,1316
2016-04-10T12:58:19.393Z,1260
2016-04-10T12:59:19.238Z,1208
2016-04-10T13:00:19.398Z,1172
2016-04-10T13:01:19.415Z,1200
2016-04-10T13:02:19.418Z,1144
2016-04-10T13:03:19.421Z,1084
2016-04-10T13:04:19.314Z,1116
2016-04-10T13:05:19.443Z,1184
2016-04-10T13:06:19.289Z,1384
2016-04-10T13:07:19.448Z,1352
2016-04-10T13:08:19.451Z,1344
2016-04-10T13:09:19.468Z,1256
2016-04-10T13:10:19.471Z,1008
2016-04-10T13:11:19.958Z,1028
2016-04-10T13:12:19.492Z,1100
2016-04-10T13:13:19.495Z,1136
2016-04-10T13:14:19.498Z,1292
2016-04-10T13:15:19.516Z,1268
2016-04-10T13:16:19.362Z,1208
2016-04-10T13:17:19.521Z,1216
2016-04-10T13:18:19.524Z,1196
2016-04-10T13:19:19.527Z,1160
2016-04-10T13:20:19.545Z,1092
2016-04-10T13:21:19.548Z,1040
2016-04-10T13:22:19.566Z,980
2016-04-10T13:23:19.553Z,924
2016-04-10T13:24:19.571Z,928
2016-04-10T13:25:19.574Z,944
2016-04-10T13:26:19.593Z,912
2016-04-10T13:27:19.579Z,900
2016-04-10T13:28:19.613Z,904
2016-04-10T13:29:19.600Z,872
2016-04-10T13:30:19.603Z,812
2016-04-10T13:31:19.465Z,728
2016-04-10T13:32:19.623Z,684
2016-04-10T13:33:19.626Z,640
2016-04-10T13:34:19.645Z,620
2016-04-10T13:35:19.648Z,640
2016-04-10T13:36:19.651Z,656
2016-04-10T13:37:19.653Z,616
2016-04-10T13:38:19.671Z,572
2016-04-10T13:39:19.689Z,548
2016-04-10T13:40:19.692Z,536
2016-04-10T13:41:19.679Z,524
2016-04-10T13:42:19.682Z,504
2016-04-10T13:43:19.700Z,492
2016-04-10T13:44:19.720Z,496
2016-04-10T13:45:19.706Z,512
2016-04-10T13:46:19.725Z,532
2016-04-10T13:47:19.712Z,572
2016-04-10T13:48:19.730Z,612
2016-04-10T13:49:19.733Z,624
2016-04-10T13:50:19.735Z,576
2016-04-10T13:51:19.769Z,552
2016-04-10T13:52:19.756Z,552
2016-04-10T13:53:19.774Z,540
2016-04-10T13:54:19.777Z,544
2016-04-10T13:55:19.779Z,552
2016-04-10T13:56:19.782Z,576
2016-04-10T13:57:19.785Z,604
2016-04-10T13:58:19.803Z,624
2016-04-10T13:59:19.807Z,596
2016-04-10T14:00:19.824Z,568
2016-04-10T14:01:19.827Z,540
2016-04-10T14:02:19.846Z,504
2016-04-10T14:03:19.848Z,496
2016-04-10T14:04:19.695Z,484
2016-04-10T14:05:19.837Z,480
2016-04-10T14:06:19.856Z,452
2016-04-10T14:07:19.859Z,404